Time;durP1;ratioP1;P1;durP2;ratioP2;P2;SDS_P1;SDS_P2;PMS_P1;PMS_P2;Temp;Humidity;BMP_temperature;BMP_pressure;BME280_temperature;BME280_humidity;BME280_pressure;Samples;Min_cycle;Max_cycle;Signal;HPM_P1;HPM_P2
2024/02/17 00:00:48;;;;;;;25.27;18.63;;;11.60;99.90;;;;;;2059073;28;20027;-79
2024/02/17 00:01:49;;;;;;;26.08;18.27;;;11.60;99.90;;;;;;2058749;28;20026;-79
2024/02/17 00:02:50;;;;;;;25.30;17.92;;;11.60;99.90;;;;;;2055492;28;20038;-79
2024/02/17 00:03:50;;;;;;;26.58;17.38;;;11.60;99.90;;;;;;2059491;28;20026;-80
2024/02/17 00:04:51;;;;;;;26.15;16.88;;;11.60;99.90;;;;;;2059689;28;20014;-77
2024/02/17 00:05:52;;;;;;;24.73;17.50;;;11.50;99.90;;;;;;2059668;28;20041;-78
2024/02/17 00:06:52;;;;;;;23.80;16.48;;;11.50;99.90;;;;;;2059673;28;20046;-78
2024/02/17 00:07:53;;;;;;;23.92;16.65;;;11.60;99.90;;;;;;2059980;28;20027;-79
2024/02/17 00:08:53;;;;;;;25.05;16.38;;;11.50;99.90;;;;;;2059685;28;20046;-79
2024/02/17 00:09:54;;;;;;;25.60;17.05;;;11.50;99.90;;;;;;2059623;28;20022;-79
2024/02/17 00:10:54;;;;;;;24.30;16.58;;;11.60;99.90;;;;;;2059725;28;20035;-79
2024/02/17 00:11:55;;;;;;;26.08;17.45;;;11.50;99.90;;;;;;2059701;28;20108;-80
2024/02/17 00:12:55;;;;;;;22.88;16.48;;;11.50;99.90;;;;;;2059790;28;20190;-78
2024/02/17 00:13:56;;;;;;;25.45;17.13;;;11.50;99.90;;;;;;2059618;28;20408;-78
2024/02/17 00:14:56;;;;;;;24.35;16.27;;;11.50;99.90;;;;;;2059027;28;20034;-77
2024/02/17 00:15:57;;;;;;;24.20;17.65;;;11.50;99.90;;;;;;2059806;28;20399;-78
2024/02/17 00:16:57;;;;;;;25.40;17.45;;;11.50;99.90;;;;;;2059737;28;20420;-78
2024/02/17 00:18:01;;;;;;;24.80;17.65;;;11.50;99.90;;;;;;2059501;28;20050;-79
2024/02/17 00:19:01;;;;;;;22.80;15.75;;;11.40;99.90;;;;;;2059750;28;20027;-78
2024/02/17 00:20:03;;;;;;;26.20;16.27;;;11.40;99.90;;;;;;2059357;28;20531;-79
2024/02/17 00:21:03;;;;;;;22.42;16.30;;;11.50;99.90;;;;;;2058876;28;20038;-80
2024/02/17 00:22:04;;;;;;;20.75;15.07;;;11.50;99.90;;;;;;2051117;28;20019;-78
2024/02/17 00:23:05;;;;;;;23.85;16.00;;;11.50;99.90;;;;;;2058946;28;20039;-79
2024/02/17 00:24:06;;;;;;;24.65;17.27;;;11.50;99.90;;;;;;2059483;28;20484;-78
2024/02/17 00:25:07;;;;;;;24.15;17.27;;;11.50;99.90;;;;;;2059998;28;20038;-79
2024/02/17 00:26:07;;;;;;;24.17;17.33;;;11.40;99.90;;;;;;2059537;28;20109;-79
2024/02/17 00:27:09;;;;;;;20.00;14.23;;;11.40;99.90;;;;;;2058623;28;20028;-78
2024/02/17 00:28:10;;;;;;;20.80;14.75;;;11.50;99.90;;;;;;2058786;28;20034;-78
2024/02/17 00:29:10;;;;;;;23.83;16.00;;;11.50;99.90;;;;;;2057266;28;20031;-78
2024/02/17 00:30:12;;;;;;;23.48;16.08;;;11.50;99.90;;;;;;2057861;28;20030;-74
2024/02/17 00:31:12;;;;;;;20.90;14.30;;;11.50;99.90;;;;;;2052310;28;20642;-80
2024/02/17 00:32:13;;;;;;;21.05;14.30;;;11.50;99.90;;;;;;2059249;28;20033;-77
2024/02/17 00:33:13;;;;;;;21.63;14.95;;;11.50;99.90;;;;;;2059695;28;20041;-79
2024/02/17 00:34:15;;;;;;;21.10;14.75;;;11.50;99.90;;;;;;2057108;28;20080;-78
2024/02/17 00:35:15;;;;;;;20.92;13.70;;;11.50;99.90;;;;;;2058071;28;20546;-79
2024/02/17 00:36:16;;;;;;;20.20;14.07;;;11.60;99.90;;;;;;2055616;28;20038;-78
2024/02/17 00:37:16;;;;;;;22.33;13.35;;;11.60;99.90;;;;;;2060150;28;20026;-76
2024/02/17 00:38:19;;;;;;;17.85;13.27;;;11.60;99.90;;;;;;2060688;28;20251;-78
2024/02/17 00:39:19;;;;;;;21.85;13.10;;;11.50;99.90;;;;;;2057001;28;20040;-77
2024/02/17 00:40:20;;;;;;;22.98;15.27;;;11.50;99.90;;;;;;2053946;28;20041;-78
2024/02/17 00:41:21;;;;;;;23.80;16.85;;;11.50;99.90;;;;;;2060313;28;20088;-77
2024/02/17 00:42:21;;;;;;;20.40;13.63;;;11.40;99.90;;;;;;2061070;28;20048;-78
2024/02/17 00:43:22;;;;;;;22.13;14.23;;;11.40;99.90;;;;;;2060611;28;20026;-78
2024/02/17 00:44:24;;;;;;;19.02;14.15;;;11.40;99.90;;;;;;2060015;28;20033;-79
2024/02/17 00:45:24;;;;;;;22.02;15.30;;;11.40;99.90;;;;;;2060335;28;20038;-78
2024/02/17 00:46:25;;;;;;;22.15;14.90;;;11.50;99.90;;;;;;2057133;28;20490;-79
2024/02/17 00:47:26;;;;;;;21.55;14.85;;;11.50;99.90;;;;;;2060282;28;20450;-77
2024/02/17 00:48:26;;;;;;;19.95;14.77;;;11.50;99.90;;;;;;2058094;28;20018;-78
2024/02/17 00:49:27;;;;;;;22.58;16.05;;;11.50;99.90;;;;;;2055870;28;20057;-78
2024/02/17 00:50:27;;;;;;;21.13;15.10;;;11.50;99.90;;;;;;2060541;28;20485;-79
2024/02/17 00:51:28;;;;;;;18.95;14.18;;;11.50;99.90;;;;;;2060839;28;20500;-77
2024/02/17 00:52:28;;;;;;;21.42;15.20;;;11.50;99.90;;;;;;2060289;28;20034;-77
2024/02/17 00:53:29;;;;;;;18.77;14.23;;;11.50;99.90;;;;;;2056858;28;20469;-77
2024/02/17 00:54:30;;;;;;;20.88;14.30;;;11.40;99.90;;;;;;2060068;28;20831;-78
2024/02/17 00:55:30;;;;;;;18.75;14.00;;;11.50;99.90;;;;;;2056717;28;20027;-78
2024/02/17 00:56:31;;;;;;;19.42;14.23;;;11.50;99.90;;;;;;2052305;28;20043;-77
2024/02/17 00:57:31;;;;;;;18.30;14.48;;;11.50;99.90;;;;;;2048435;28;20711;-77
2024/02/17 00:58:32;;;;;;;18.92;14.20;;;11.50;99.90;;;;;;2060162;28;20480;-78
2024/02/17 00:59:33;;;;;;;19.48;14.77;;;11.50;99.90;;;;;;2061087;28;20512;-79
2024/02/17 01:00:34;;;;;;;19.25;14.50;;;11.50;99.90;;;;;;2060932;28;20492;-78
2024/02/17 01:01:34;;;;;;;20.92;14.80;;;11.50;99.90;;;;;;2060351;28;20030;-77
2024/02/17 01:02:35;;;;;;;21.60;14.80;;;11.50;99.90;;;;;;2059963;28;20026;-72
2024/02/17 01:03:35;;;;;;;20.60;14.88;;;11.50;99.90;;;;;;2058318;28;20041;-80
2024/02/17 01:04:36;;;;;;;20.77;14.82;;;11.40;99.90;;;;;;2061231;28;20022;-80
2024/02/17 01:05:38;;;;;;;22.55;15.38;;;11.40;99.90;;;;;;2048058;28;20130;-79
2024/02/17 01:06:39;;;;;;;21.23;15.82;;;11.40;99.90;;;;;;2047386;28;20446;-78
2024/02/17 01:07:40;;;;;;;22.25;15.98;;;11.40;99.90;;;;;;2056167;28;20109;-79
2024/02/17 01:08:40;;;;;;;19.25;15.77;;;11.40;99.90;;;;;;2056505;28;20733;-78
2024/02/17 01:09:41;;;;;;;24.27;16.55;;;11.30;99.90;;;;;;2060466;28;20034;-83
2024/02/17 01:10:41;;;;;;;23.50;15.85;;;11.30;99.90;;;;;;2060389;28;20100;-78
2024/02/17 01:11:42;;;;;;;22.65;15.65;;;11.30;99.90;;;;;;2061123;28;20436;-78
2024/02/17 01:12:43;;;;;;;21.17;16.20;;;11.30;99.90;;;;;;2061044;28;20019;-79
2024/02/17 01:13:43;;;;;;;19.88;15.70;;;11.30;99.90;;;;;;2060920;28;20503;-78
2024/02/17 01:14:44;;;;;;;19.88;15.85;;;11.30;99.90;;;;;;2056793;28;20054;-78
2024/02/17 01:15:44;;;;;;;20.27;15.65;;;11.30;99.90;;;;;;2058620;28;20030;-78
2024/02/17 01:16:45;;;;;;;19.63;15.90;;;11.20;99.90;;;;;;2049015;28;20512;-78
2024/02/17 01:17:45;;;;;;;23.60;15.60;;;11.30;99.90;;;;;;2060230;28;20042;-77
2024/02/17 01:18:46;;;;;;;20.80;15.20;;;11.30;99.90;;;;;;2059636;28;20070;-78
2024/02/17 01:19:47;;;;;;;21.15;15.88;;;11.30;99.90;;;;;;2058289;28;20097;-79
2024/02/17 01:20:47;;;;;;;21.52;15.48;;;11.30;99.90;;;;;;2060651;28;20440;-78
2024/02/17 01:21:48;;;;;;;22.52;15.65;;;11.20;99.90;;;;;;2060929;28;20049;-79
2024/02/17 01:22:48;;;;;;;18.55;15.57;;;11.20;99.90;;;;;;2059199;28;20409;-78
2024/02/17 01:23:49;;;;;;;19.63;15.60;;;11.20;99.90;;;;;;2058005;28;20120;-77
2024/02/17 01:24:50;;;;;;;21.83;16.00;;;11.20;99.90;;;;;;2060060;28;20022;-78
2024/02/17 01:25:50;;;;;;;19.85;15.65;;;11.20;99.90;;;;;;2060657;28;20038;-78
2024/02/17 01:26:51;;;;;;;19.52;15.60;;;11.20;99.90;;;;;;2059860;28;20081;-78
2024/02/17 01:27:52;;;;;;;19.27;16.00;;;11.20;99.90;;;;;;2059633;28;20488;-78
2024/02/17 01:28:53;;;;;;;21.05;15.93;;;11.20;99.90;;;;;;2059974;28;20027;-79
2024/02/17 01:29:53;;;;;;;22.05;16.73;;;11.20;99.90;;;;;;2061140;28;20026;-78
2024/02/17 01:30:54;;;;;;;22.70;16.52;;;11.10;99.90;;;;;;2060615;28;20781;-79
2024/02/17 01:31:57;;;;;;;21.98;16.27;;;11.20;99.90;;;;;;2050780;28;20134;-78
2024/02/17 01:32:57;;;;;;;20.17;15.77;;;11.20;99.90;;;;;;2058980;28;20034;-79
2024/02/17 01:33:58;;;;;;;22.27;16.52;;;11.10;99.90;;;;;;2060980;28;20023;-78
2024/02/17 01:34:59;;;;;;;22.30;16.73;;;11.10;99.90;;;;;;2060584;28;20396;-78
2024/02/17 01:35:59;;;;;;;23.63;16.70;;;11.10;99.90;;;;;;2061421;28;20140;-78
2024/02/17 01:37:00;;;;;;;21.83;16.13;;;11.10;99.90;;;;;;2056783;28;20792;-77
2024/02/17 01:38:03;;;;;;;20.20;16.08;;;11.10;99.90;;;;;;2060378;28;20983;-78
2024/02/17 01:39:04;;;;;;;18.83;15.85;;;11.10;99.90;;;;;;2045006;28;20035;-78
2024/02/17 01:40:06;;;;;;;21.08;15.88;;;11.10;99.90;;;;;;2044744;29;20027;-78
2024/02/17 01:41:06;;;;;;;23.92;16.45;;;11.10;99.90;;;;;;2044710;28;20034;-77
2024/02/17 01:42:07;;;;;;;19.13;15.40;;;11.10;99.90;;;;;;2044589;29;20027;-77
2024/02/17 01:43:07;;;;;;;23.58;15.80;;;11.10;99.90;;;;;;2043964;29;20445;-77
2024/02/17 01:44:08;;;;;;;19.85;15.50;;;11.00;99.90;;;;;;2038432;29;20479;-78
2024/02/17 01:45:12;;;;;;;19.45;15.60;;;11.10;99.90;;;;;;2044031;29;20027;-80
2024/02/17 01:46:13;;;;;;;19.05;15.00;;;11.10;99.90;;;;;;2043991;28;20549;-79
2024/02/17 01:47:14;;;;;;;20.08;15.27;;;11.00;99.90;;;;;;2043907;29;20023;-78
2024/02/17 01:48:15;;;;;;;17.80;14.20;;;11.00;99.90;;;;;;2044595;28;20393;-79
2024/02/17 01:49:16;;;;;;;18.85;14.90;;;11.10;99.90;;;;;;2043186;29;20088;-78
2024/02/17 01:50:17;;;;;;;19.88;15.00;;;11.10;99.90;;;;;;2043766;29;20042;-76
2024/02/17 01:51:18;;;;;;;18.42;14.85;;;11.00;99.90;;;;;;2044499;28;20494;-76
2024/02/17 01:52:19;;;;;;;20.58;14.75;;;11.10;99.90;;;;;;2043983;29;20039;-77
2024/02/17 01:53:20;;;;;;;18.92;14.70;;;11.00;99.90;;;;;;2043930;29;20094;-77
2024/02/17 01:54:21;;;;;;;19.75;14.93;;;11.10;99.90;;;;;;2044534;29;20042;-77
2024/02/17 01:55:22;;;;;;;17.73;14.55;;;11.10;99.90;;;;;;2043324;29;20043;-77
2024/02/17 01:56:24;;;;;;;18.92;14.73;;;11.10;99.90;;;;;;2040884;29;20034;-77
2024/02/17 01:57:26;;;;;;;19.75;14.10;;;11.10;99.90;;;;;;2044378;28;20046;-77
2024/02/17 01:58:27;;;;;;;20.63;14.50;;;11.10;99.90;;;;;;2044518;28;20090;-77
2024/02/17 01:59:28;;;;;;;16.80;14.07;;;11.10;99.90;;;;;;2044418;29;20106;-77
2024/02/17 02:00:29;;;;;;;18.95;14.15;;;11.10;99.90;;;;;;2044618;29;20031;-80
2024/02/17 02:01:30;;;;;;;17.73;14.52;;;11.10;99.90;;;;;;2044916;28;20031;-78
2024/02/17 02:02:31;;;;;;;17.88;14.43;;;11.10;99.90;;;;;;2043749;29;20126;-78
2024/02/17 02:03:32;;;;;;;18.00;13.65;;;11.10;99.90;;;;;;2042371;29;20677;-79
2024/02/17 02:04:34;;;;;;;18.17;14.52;;;11.10;99.90;;;;;;2041322;28;20078;-77
2024/02/17 02:05:34;;;;;;;19.40;14.32;;;11.00;99.90;;;;;;2036238;29;20027;-79
2024/02/17 02:06:38;;;;;;;19.20;14.30;;;11.00;99.90;;;;;;2035983;29;20130;-79
2024/02/17 02:07:39;;;;;;;17.75;14.10;;;11.00;99.90;;;;;;2042022;29;20034;-81
2024/02/17 02:08:39;;;;;;;19.75;14.40;;;11.00;99.90;;;;;;2044083;29;20058;-77
2024/02/17 02:09:40;;;;;;;18.50;13.95;;;11.00;99.90;;;;;;2044691;28;20934;-80
2024/02/17 02:10:41;;;;;;;18.92;14.73;;;11.00;99.90;;;;;;2043896;29;20626;-77
2024/02/17 02:11:41;;;;;;;18.08;14.30;;;10.90;99.90;;;;;;2044072;29;20626;-77
2024/02/17 02:12:42;;;;;;;18.75;13.73;;;10.90;99.90;;;;;;2044518;29;20361;-78
2024/02/17 02:13:42;;;;;;;19.00;14.20;;;10.90;99.90;;;;;;2044844;28;20086;-77
2024/02/17 02:14:43;;;;;;;19.25;14.45;;;10.80;99.90;;;;;;2044489;29;20066;-77
2024/02/17 02:15:44;;;;;;;20.88;15.35;;;10.80;99.90;;;;;;2044552;29;20035;-77
2024/02/17 02:16:48;;;;;;;19.13;14.70;;;10.90;99.90;;;;;;2044469;28;20031;-79
2024/02/17 02:17:48;;;;;;;17.70;14.73;;;10.80;99.90;;;;;;2044301;29;20085;-79
2024/02/17 02:18:49;;;;;;;19.60;15.30;;;10.80;99.90;;;;;;2040518;28;20445;-77
2024/02/17 02:19:50;;;;;;;19.45;15.40;;;10.80;99.90;;;;;;2044321;29;20031;-79
2024/02/17 02:20:51;;;;;;;18.35;15.18;;;10.80;99.90;;;;;;2042607;29;20035;-79
2024/02/17 02:21:52;;;;;;;17.63;14.68;;;10.80;99.90;;;;;;2046155;29;20062;-79
2024/02/17 02:22:52;;;;;;;20.25;15.73;;;10.80;99.90;;;;;;2044543;29;20476;-79
2024/02/17 02:23:53;;;;;;;17.80;14.70;;;10.80;99.90;;;;;;2044870;28;20513;-79
2024/02/17 02:24:58;;;;;;;19.80;14.70;;;10.80;99.90;;;;;;2044216;29;20066;-79
2024/02/17 02:25:59;;;;;;;19.13;14.68;;;10.70;99.90;;;;;;2041035;29;20476;-79
2024/02/17 02:26:59;;;;;;;20.38;15.32;;;10.80;99.90;;;;;;2044316;29;20046;-79
2024/02/17 02:28:00;;;;;;;19.92;15.07;;;10.80;99.90;;;;;;2044669;29;20362;-79
2024/02/17 02:29:01;;;;;;;18.88;14.23;;;10.80;99.90;;;;;;2043464;28;20054;-78
2024/02/17 02:30:02;;;;;;;19.23;14.45;;;10.70;99.90;;;;;;2043681;29;20031;-78
2024/02/17 02:31:02;;;;;;;19.83;14.68;;;10.80;99.90;;;;;;2041994;29;20549;-79
2024/02/17 02:32:03;;;;;;;21.73;14.38;;;10.80;99.90;;;;;;2040708;28;20497;-80
2024/02/17 02:33:04;;;;;;;19.35;14.27;;;10.80;99.90;;;;;;2044685;29;20034;-80
2024/02/17 02:34:04;;;;;;;16.58;13.23;;;10.80;99.90;;;;;;2044271;29;20394;-81
2024/02/17 02:35:05;;;;;;;16.95;13.32;;;10.80;99.90;;;;;;2044204;29;20169;-78
2024/02/17 02:36:06;;;;;;;16.77;13.65;;;10.90;99.90;;;;;;2036194;29;20026;-80
2024/02/17 02:37:07;;;;;;;17.92;13.95;;;10.90;99.90;;;;;;2031584;29;20039;-79
2024/02/17 02:38:07;;;;;;;19.77;14.70;;;10.90;99.90;;;;;;2031999;29;20060;-81
2024/02/17 02:39:08;;;;;;;19.58;14.50;;;10.80;99.90;;;;;;2057483;28;20042;-79
2024/02/17 02:40:08;;;;;;;19.42;14.75;;;10.80;99.90;;;;;;2060341;28;20026;-88
2024/02/17 02:41:10;;;;;;;19.48;14.57;;;10.80;99.90;;;;;;2064939;28;20090;-89
2024/02/17 02:42:11;;;;;;;18.70;14.88;;;10.80;99.90;;;;;;2072392;28;20041;-88
2024/02/17 02:43:12;;;;;;;19.70;15.48;;;10.90;99.90;;;;;;2073711;28;20037;-86
2024/02/17 02:44:13;;;;;;;20.42;14.45;;;10.90;99.90;;;;;;2073276;28;20065;-90
2024/02/17 02:45:13;;;;;;;20.27;15.25;;;10.90;99.90;;;;;;2068658;28;20070;-86
2024/02/17 02:46:14;;;;;;;18.40;14.48;;;11.00;99.90;;;;;;2072218;28;20042;-87
2024/02/17 02:47:17;;;;;;;19.48;14.48;;;11.00;99.90;;;;;;2069992;28;20058;-88
2024/02/17 02:48:18;;;;;;;18.65;13.82;;;11.00;99.90;;;;;;2071004;28;20047;-90
2024/02/17 02:49:19;;;;;;;19.98;14.75;;;11.00;99.90;;;;;;2067434;28;20030;-89
2024/02/17 02:50:19;;;;;;;20.50;15.55;;;11.00;99.90;;;;;;2064837;28;20034;-89
2024/02/17 02:51:20;;;;;;;20.55;15.52;;;11.00;99.90;;;;;;2074012;28;20285;-89
2024/02/17 02:52:20;;;;;;;20.45;15.23;;;11.00;99.90;;;;;;2074500;28;20118;-88
2024/02/17 02:53:21;;;;;;;22.60;16.25;;;11.00;99.90;;;;;;2066751;28;20019;-88
2024/02/17 02:54:22;;;;;;;21.85;15.50;;;11.00;99.90;;;;;;2064137;28;20050;-87
2024/02/17 02:55:22;;;;;;;22.38;16.75;;;11.00;99.90;;;;;;2072597;28;20030;-89
2024/02/17 02:56:23;;;;;;;20.95;16.08;;;11.00;99.90;;;;;;2069463;28;20113;-89
2024/02/17 02:57:24;;;;;;;22.33;16.38;;;11.00;99.90;;;;;;2065947;28;20042;-90
2024/02/17 02:58:25;;;;;;;22.25;16.00;;;11.00;99.90;;;;;;2070392;28;20034;-89
2024/02/17 02:59:25;;;;;;;20.80;16.10;;;11.00;99.90;;;;;;2071765;28;20078;-89
2024/02/17 03:00:26;;;;;;;26.17;17.10;;;11.00;99.90;;;;;;2064916;28;20027;-89
2024/02/17 03:01:26;;;;;;;22.92;16.40;;;11.00;99.90;;;;;;2072371;28;20030;-88
2024/02/17 03:02:27;;;;;;;23.02;17.05;;;11.00;99.90;;;;;;2070493;28;20150;-89
2024/02/17 03:03:27;;;;;;;22.95;17.40;;;11.00;99.90;;;;;;2075264;28;20031;-89
2024/02/17 03:04:28;;;;;;;24.98;18.10;;;11.00;99.90;;;;;;2069788;28;20066;-89
2024/02/17 03:05:30;;;;;;;24.90;18.00;;;11.00;99.90;;;;;;2073744;28;20106;-87
2024/02/17 03:06:31;;;;;;;22.25;16.77;;;11.00;99.90;;;;;;2068386;28;20073;-90
2024/02/17 03:07:31;;;;;;;24.67;18.00;;;11.00;99.90;;;;;;2066382;28;20443;-89
2024/02/17 03:08:32;;;;;;;21.73;16.63;;;11.00;99.90;;;;;;2072739;28;20089;-90
2024/02/17 03:09:32;;;;;;;22.20;16.75;;;10.90;99.90;;;;;;2073532;28;20030;-88
2024/02/17 03:10:33;;;;;;;26.80;18.52;;;10.90;99.90;;;;;;2073604;28;20049;-89
2024/02/17 03:11:34;;;;;;;25.30;17.83;;;10.90;99.90;;;;;;2073000;28;20073;-89
2024/02/17 03:12:34;;;;;;;25.23;18.85;;;10.90;99.90;;;;;;2073889;28;20093;-88
2024/02/17 03:13:36;;;;;;;24.52;18.80;;;10.90;99.90;;;;;;2074334;28;20034;-89
2024/02/17 03:14:38;;;;;;;25.13;19.42;;;10.90;99.90;;;;;;2072268;28;20014;-89
2024/02/17 03:15:39;;;;;;;26.63;19.13;;;10.90;99.90;;;;;;2071601;28;20030;-90
2024/02/17 03:16:39;;;;;;;27.45;19.80;;;10.90;99.90;;;;;;2071469;28;20295;-90
2024/02/17 03:17:40;;;;;;;26.83;19.75;;;10.90;99.90;;;;;;2071497;28;20082;-90
2024/02/17 03:18:41;;;;;;;31.20;21.45;;;10.90;99.90;;;;;;2062877;28;20493;-89
2024/02/17 03:19:42;;;;;;;32.38;21.45;;;10.80;99.90;;;;;;2074339;28;20077;-89
2024/02/17 03:20:43;;;;;;;30.90;21.88;;;10.80;99.90;;;;;;2065552;28;20087;-88
2024/02/17 03:21:43;;;;;;;31.20;22.35;;;10.80;99.90;;;;;;2070687;28;20054;-89
2024/02/17 03:22:44;;;;;;;32.80;22.60;;;10.70;99.90;;;;;;2069641;28;20053;-89
2024/02/17 03:23:45;;;;;;;32.88;22.67;;;10.70;99.90;;;;;;2072902;28;20034;-88
2024/02/17 03:24:46;;;;;;;34.58;23.95;;;10.60;99.90;;;;;;2068602;28;20040;-88
2024/02/17 03:25:46;;;;;;;37.25;24.27;;;10.60;99.90;;;;;;2065792;28;20050;-87
2024/02/17 03:26:47;;;;;;;35.25;24.50;;;10.60;99.90;;;;;;2073898;28;20023;-89
2024/02/17 03:27:48;;;;;;;36.72;24.30;;;10.60;99.90;;;;;;2072150;28;20010;-89
2024/02/17 03:28:48;;;;;;;38.50;25.17;;;10.60;99.90;;;;;;2072078;28;20065;-87
2024/02/17 03:29:49;;;;;;;36.63;24.45;;;10.60;99.90;;;;;;2069897;28;20026;-87
2024/02/17 03:30:49;;;;;;;40.03;25.95;;;10.60;99.90;;;;;;2054932;28;20034;-77
2024/02/17 03:31:50;;;;;;;40.65;26.10;;;10.60;99.90;;;;;;2052038;28;20026;-78
2024/02/17 03:32:50;;;;;;;40.38;26.00;;;10.60;99.90;;;;;;2059147;28;20030;-77
2024/02/17 03:33:51;;;;;;;38.45;26.35;;;10.60;99.90;;;;;;2059801;28;20050;-77
2024/02/17 03:34:52;;;;;;;39.35;25.67;;;10.60;99.90;;;;;;2059728;28;20026;-77
2024/02/17 03:35:52;;;;;;;40.22;25.50;;;10.60;99.90;;;;;;2058853;28;20038;-77
2024/02/17 03:36:53;;;;;;;39.40;26.60;;;10.60;99.90;;;;;;2056315;28;20022;-77
2024/02/17 03:37:53;;;;;;;39.25;25.63;;;10.60;99.90;;;;;;2059610;28;20019;-76
2024/02/17 03:38:54;;;;;;;37.00;25.58;;;10.50;99.90;;;;;;2059445;28;20031;-76
2024/02/17 03:39:54;;;;;;;40.30;26.13;;;10.50;99.90;;;;;;2059708;28;20121;-79
2024/02/17 03:40:55;;;;;;;39.75;25.55;;;10.50;99.90;;;;;;2063752;28;20026;-88
2024/02/17 03:41:55;;;;;;;38.25;24.60;;;10.50;99.90;;;;;;2065748;28;20021;-87
2024/02/17 03:42:56;;;;;;;39.22;25.17;;;10.50;99.90;;;;;;2063571;28;20034;-89
2024/02/17 03:43:56;;;;;;;37.75;25.20;;;10.50;99.90;;;;;;2061385;28;20034;-84
2024/02/17 03:44:57;;;;;;;41.40;26.17;;;10.50;99.90;;;;;;2064626;28;20030;-89
2024/02/17 03:45:58;;;;;;;37.78;24.88;;;10.50;99.90;;;;;;2063483;28;20030;-88
2024/02/17 03:46:58;;;;;;;35.58;24.33;;;10.40;99.90;;;;;;2065422;28;20030;-88
2024/02/17 03:47:59;;;;;;;36.42;23.92;;;10.40;99.90;;;;;;2063811;28;20031;-88
2024/02/17 03:48:59;;;;;;;37.38;24.70;;;10.40;99.90;;;;;;2061223;28;20023;-86
2024/02/17 03:50:00;;;;;;;36.65;24.55;;;10.40;99.90;;;;;;2060016;28;20066;-89
2024/02/17 03:51:01;;;;;;;36.60;24.08;;;10.40;99.90;;;;;;2063564;28;20088;-88
2024/02/17 03:52:01;;;;;;;38.88;24.25;;;10.40;99.90;;;;;;2063589;28;20023;-88
2024/02/17 03:53:02;;;;;;;37.50;24.45;;;10.30;99.90;;;;;;2063959;28;20038;-89
2024/02/17 03:54:03;;;;;;;36.92;23.77;;;10.40;99.90;;;;;;2062911;28;20037;-88
2024/02/17 03:55:03;;;;;;;37.83;23.90;;;10.40;99.90;;;;;;2062023;28;20022;-88
2024/02/17 03:56:04;;;;;;;35.50;24.02;;;10.40;99.90;;;;;;2063183;28;20049;-89
2024/02/17 03:57:05;;;;;;;35.88;23.42;;;10.40;99.90;;;;;;2052890;28;20062;-88
2024/02/17 03:58:05;;;;;;;33.72;23.92;;;10.40;99.90;;;;;;2055892;28;20105;-89
2024/02/17 03:59:06;;;;;;;36.58;24.30;;;10.30;99.90;;;;;;2053073;28;20029;-85
2024/02/17 04:00:10;;;;;;;38.72;24.95;;;10.30;99.90;;;;;;2056034;28;20093;-87
2024/02/17 04:01:13;;;;;;;37.53;24.15;;;10.30;99.90;;;;;;2064807;28;20086;-86
2024/02/17 04:02:13;;;;;;;36.85;24.02;;;10.30;99.90;;;;;;2061904;28;20097;-90
2024/02/17 04:03:14;;;;;;;35.72;24.15;;;10.30;99.90;;;;;;2064862;28;20066;-90
2024/02/17 04:04:14;;;;;;;39.08;24.50;;;10.30;99.90;;;;;;2064550;28;20050;-89
2024/02/17 04:05:16;;;;;;;37.63;24.00;;;10.30;99.90;;;;;;2062192;28;20038;-89
2024/02/17 04:06:17;;;;;;;39.95;24.33;;;10.30;99.90;;;;;;2063080;28;20034;-87
2024/02/17 04:07:18;;;;;;;38.75;24.48;;;10.30;99.90;;;;;;2063810;28;20057;-88
2024/02/17 04:08:19;;;;;;;38.05;24.45;;;10.30;99.90;;;;;;2064766;28;20109;-88
2024/02/17 04:09:19;;;;;;;37.83;24.27;;;10.30;99.90;;;;;;2063395;28;20539;-87
2024/02/17 04:10:20;;;;;;;38.35;24.63;;;10.30;99.90;;;;;;2064047;28;20037;-89
2024/02/17 04:11:20;;;;;;;36.35;24.30;;;10.30;99.90;;;;;;2064062;28;20030;-90
2024/02/17 04:12:21;;;;;;;42.15;24.05;;;10.30;99.90;;;;;;2062773;28;20548;-88
2024/02/17 04:13:22;;;;;;;34.45;23.48;;;10.30;99.90;;;;;;2066728;28;20451;-88
2024/02/17 04:14:23;;;;;;;35.60;24.08;;;10.30;99.90;;;;;;2062955;28;20073;-90
2024/02/17 04:15:23;;;;;;;37.95;24.30;;;10.30;99.90;;;;;;2067823;28;20029;-89
2024/02/17 04:16:24;;;;;;;34.05;23.45;;;10.30;99.90;;;;;;2066651;28;20033;-88
2024/02/17 04:17:25;;;;;;;35.97;24.10;;;10.30;99.90;;;;;;2062681;28;20105;-89
2024/02/17 04:18:25;;;;;;;39.20;24.38;;;10.30;99.90;;;;;;2065808;28;20026;-88
2024/02/17 04:19:26;;;;;;;39.22;24.77;;;10.30;99.90;;;;;;2061951;28;20085;-86
2024/02/17 04:20:27;;;;;;;38.63;24.23;;;10.30;99.90;;;;;;2066873;28;20116;-88
2024/02/17 04:21:27;;;;;;;38.70;23.98;;;10.30;99.90;;;;;;2063684;28;20052;-88
2024/02/17 04:22:28;;;;;;;37.53;23.98;;;10.30;99.90;;;;;;2069658;28;20062;-89
2024/02/17 04:23:28;;;;;;;37.10;23.92;;;10.30;99.90;;;;;;2069898;28;20027;-89
2024/02/17 04:24:29;;;;;;;35.95;23.50;;;10.30;99.90;;;;;;2067991;28;20038;-89
2024/02/17 04:25:30;;;;;;;35.83;23.58;;;10.30;99.90;;;;;;2065051;28;20049;-90
2024/02/17 04:26:31;;;;;;;33.97;23.23;;;10.30;99.90;;;;;;2068190;28;20038;-88
2024/02/17 04:27:31;;;;;;;37.75;24.02;;;10.30;99.90;;;;;;2061565;28;20054;-88
2024/02/17 04:28:33;;;;;;;35.83;22.85;;;10.20;99.90;;;;;;2062606;28;20039;-81
2024/02/17 04:29:33;;;;;;;34.97;23.10;;;10.20;99.90;;;;;;2068056;28;20094;-87
2024/02/17 04:30:34;;;;;;;35.97;22.98;;;10.20;99.90;;;;;;2069431;28;20034;-87
2024/02/17 04:31:34;;;;;;;34.40;22.63;;;10.20;99.90;;;;;;2065099;28;20022;-87
2024/02/17 04:32:35;;;;;;;34.10;22.83;;;10.20;99.90;;;;;;2068791;28;20102;-87
2024/02/17 04:33:38;;;;;;;36.50;23.55;;;10.20;99.90;;;;;;2064486;28;20033;-87
2024/02/17 04:34:39;;;;;;;33.72;23.00;;;10.20;99.90;;;;;;2064799;28;20528;-87
2024/02/17 04:35:40;;;;;;;34.58;23.15;;;10.20;99.90;;;;;;2068426;28;20030;-89
2024/02/17 04:36:40;;;;;;;34.88;23.55;;;10.20;99.90;;;;;;2067563;28;20030;-87
2024/02/17 04:37:41;;;;;;;33.47;22.63;;;10.20;99.90;;;;;;2066489;28;20133;-89
2024/02/17 04:38:41;;;;;;;35.25;23.42;;;10.20;99.90;;;;;;2071149;28;20046;-88
2024/02/17 04:39:42;;;;;;;35.17;23.27;;;10.20;99.90;;;;;;2069222;28;20058;-87
2024/02/17 04:40:42;;;;;;;36.25;23.90;;;10.20;99.90;;;;;;2072004;28;20026;-90
2024/02/17 04:41:43;;;;;;;36.50;24.50;;;10.30;99.90;;;;;;2070741;28;20019;-87
2024/02/17 04:42:44;;;;;;;38.75;24.33;;;10.30;99.90;;;;;;2067482;28;20124;-89
2024/02/17 04:43:45;;;;;;;36.25;23.90;;;10.30;99.90;;;;;;2067900;28;20618;-90
2024/02/17 04:44:46;;;;;;;37.38;24.58;;;10.30;99.90;;;;;;2066400;28;20046;-90
2024/02/17 04:45:46;;;;;;;39.67;25.58;;;10.30;99.90;;;;;;2064030;28;20037;-85
2024/02/17 04:46:47;;;;;;;38.10;24.40;;;10.30;99.90;;;;;;2065532;28;20440;-89
2024/02/17 04:47:48;;;;;;;37.72;24.55;;;10.30;99.90;;;;;;2064533;28;20038;-87
2024/02/17 04:48:49;;;;;;;40.40;25.63;;;10.30;99.90;;;;;;2061041;28;20029;-88
2024/02/17 04:49:49;;;;;;;37.92;24.98;;;10.30;99.90;;;;;;2059903;28;20031;-90
2024/02/17 04:50:50;;;;;;;36.58;24.52;;;10.30;99.90;;;;;;2066095;28;20037;-90
2024/02/17 04:51:50;;;;;;;36.00;24.02;;;10.30;99.90;;;;;;2067028;28;20030;-88
2024/02/17 04:52:52;;;;;;;38.38;24.05;;;10.30;99.90;;;;;;2065597;28;20019;-89
2024/02/17 04:53:52;;;;;;;35.33;23.77;;;10.30;99.90;;;;;;2065053;28;20460;-89
2024/02/17 04:54:53;;;;;;;36.88;23.92;;;10.30;99.90;;;;;;2063782;28;20022;-89
2024/02/17 04:55:53;;;;;;;36.90;24.00;;;10.30;99.90;;;;;;2068573;28;20027;-89
2024/02/17 04:56:54;;;;;;;36.20;24.35;;;10.30;99.90;;;;;;2068094;28;20039;-88
2024/02/17 04:57:54;;;;;;;37.05;24.63;;;10.30;99.90;;;;;;2066472;28;20081;-89
2024/02/17 04:58:55;;;;;;;37.22;24.88;;;10.30;99.90;;;;;;2061546;28;20501;-88
2024/02/17 04:59:55;;;;;;;36.45;24.13;;;10.30;99.90;;;;;;2063472;28;20031;-88
2024/02/17 05:00:56;;;;;;;36.55;23.92;;;10.30;99.90;;;;;;2065252;28;20046;-89
2024/02/17 05:01:56;;;;;;;39.42;24.95;;;10.30;99.90;;;;;;2065267;28;20038;-88
2024/02/17 05:02:57;;;;;;;38.38;24.83;;;10.30;99.90;;;;;;2065068;28;20030;-87
2024/02/17 05:03:57;;;;;;;37.08;25.27;;;10.30;99.90;;;;;;2064676;28;20030;-89
2024/02/17 05:04:58;;;;;;;35.70;24.15;;;10.30;99.90;;;;;;2063297;28;20076;-89
2024/02/17 05:05:58;;;;;;;40.72;25.50;;;10.30;99.90;;;;;;2060193;28;20026;-88
2024/02/17 05:06:59;;;;;;;39.92;25.17;;;10.30;99.90;;;;;;2064551;28;20523;-87
2024/02/17 05:08:00;;;;;;;38.60;24.65;;;10.30;99.90;;;;;;2063488;28;20461;-87
2024/02/17 05:09:00;;;;;;;36.67;24.65;;;10.30;99.90;;;;;;2063517;28;20022;-87